sensor_id;sensor_type;location;lat;lon;timestamp;pressure;altitude;pressure_sealevel;temperature;humidity
69593;BME280;56796;50.122;14.468;2023-04-27T00:11:05;981.79;;;6.44;63.35
69593;BME280;56796;50.122;14.468;2023-04-27T00:30:32;981.67;;;6.37;65.86
69593;BME280;56796;50.122;14.468;2023-04-27T00:49:57;981.72;;;6.27;63.92
69593;BME280;56796;50.122;14.468;2023-04-27T01:09:23;981.68;;;6.31;64.4
69593;BME280;56796;50.122;14.468;2023-04-27T01:28:49;981.77;;;6.15;66.9
69593;BME280;56796;50.122;14.468;2023-04-27T01:48:14;981.77;;;5.94;68.7
69593;BME280;56796;50.122;14.468;2023-04-27T02:07:40;981.9;;;5.7;70.31
69593;BME280;56796;50.122;14.468;2023-04-27T02:27:05;981.94;;;5.51;72.4
69593;BME280;56796;50.122;14.468;2023-04-27T02:46:31;982.03;;;5.51;73.06
69593;BME280;56796;50.122;14.468;2023-04-27T03:05:56;982.01;;;5.48;73.61
69593;BME280;56796;50.122;14.468;2023-04-27T03:25:22;982.14;;;5.36;74.73
69593;BME280;56796;50.122;14.468;2023-04-27T03:44:48;982.22;;;5.46;75.31
69593;BME280;56796;50.122;14.468;2023-04-27T04:04:14;982.37;;;5.52;76.23
69593;BME280;56796;50.122;14.468;2023-04-27T04:23:40;982.53;;;5.48;75.54
69593;BME280;56796;50.122;14.468;2023-04-27T04:43:06;982.66;;;5.72;76.44
69593;BME280;56796;50.122;14.468;2023-04-27T05:02:33;982.87;;;6.25;74.56
69593;BME280;56796;50.122;14.468;2023-04-27T05:22:01;982.92;;;6.72;69.71
69593;BME280;56796;50.122;14.468;2023-04-27T05:41:32;982.94;;;7.51;65.48
69593;BME280;56796;50.122;14.468;2023-04-27T06:00:50;982.93;;;8.08;62.63
69593;BME280;56796;50.122;14.468;2023-04-27T06:20:21;982.93;;;8.76;60.02
69593;BME280;56796;50.122;14.468;2023-04-27T06:39:54;982.9;;;10.28;56.61
69593;BME280;56796;50.122;14.468;2023-04-27T06:59:26;982.93;;;11.14;52.66
69593;BME280;56796;50.122;14.468;2023-04-27T07:18:55;982.94;;;11.66;49.49
69593;BME280;56796;50.122;14.468;2023-04-27T07:38:21;982.89;;;12.43;48.74
69593;BME280;56796;50.122;14.468;2023-04-27T07:57:51;982.91;;;12.52;49.23
69593;BME280;56796;50.122;14.468;2023-04-27T08:17:23;982.89;;;14.35;41.75
69593;BME280;56796;50.122;14.468;2023-04-27T08:36:56;982.92;;;14.34;40.18
69593;BME280;56796;50.122;14.468;2023-04-27T08:56:26;983.01;;;14.31;38.68
69593;BME280;56796;50.122;14.468;2023-04-27T09:15:48;982.99;;;14.92;38.77
69593;BME280;56796;50.122;14.468;2023-04-27T09:35:19;982.81;;;14.3;39.27
69593;BME280;56796;50.122;14.468;2023-04-27T09:54:43;982.83;;;15.32;39.02
69593;BME280;56796;50.122;14.468;2023-04-27T10:14:08;982.76;;;14.83;38.68
69593;BME280;56796;50.122;14.468;2023-04-27T10:33:41;982.68;;;15.38;36.96
69593;BME280;56796;50.122;14.468;2023-04-27T10:52:58;982.63;;;13.06;41.13
69593;BME280;56796;50.122;14.468;2023-04-27T11:12:40;982.59;;;15.06;37.42
69593;BME280;56796;50.122;14.468;2023-04-27T11:32:17;982.41;;;18;32.71
69593;BME280;56796;50.122;14.468;2023-04-27T11:51:39;982.6;;;14.71;36.14
69593;BME280;56796;50.122;14.468;2023-04-27T12:11:05;982.47;;;17.14;35.16
69593;BME280;56796;50.122;14.468;2023-04-27T12:30:31;982.43;;;17.93;33.2
69593;BME280;56796;50.122;14.468;2023-04-27T12:49:59;982.36;;;18.84;31.5
69593;BME280;56796;50.122;14.468;2023-04-27T13:09:29;982.34;;;17.62;31.85
69593;BME280;56796;50.122;14.468;2023-04-27T13:28:42;982.34;;;15.07;35.89
69593;BME280;56796;50.122;14.468;2023-04-27T13:48:10;982.13;;;17.5;34.96
69593;BME280;56796;50.122;14.468;2023-04-27T14:07:40;982.02;;;17.81;33.24
69593;BME280;56796;50.122;14.468;2023-04-27T14:27:05;981.84;;;17.03;34.46
69593;BME280;56796;50.122;14.468;2023-04-27T14:46:29;981.86;;;17.35;34.6
69593;BME280;56796;50.122;14.468;2023-04-27T15:05:54;981.72;;;16.69;35.92
69593;BME280;56796;50.122;14.468;2023-04-27T15:25:18;981.81;;;16.73;34.89
69593;BME280;56796;50.122;14.468;2023-04-27T15:44:43;981.86;;;16.04;36.18
69593;BME280;56796;50.122;14.468;2023-04-27T16:04:07;981.77;;;16.01;35.97
69593;BME280;56796;50.122;14.468;2023-04-27T16:23:33;981.73;;;15.27;38.17
69593;BME280;56796;50.122;14.468;2023-04-27T16:42:57;981.58;;;13.82;40.87
69593;BME280;56796;50.122;14.468;2023-04-27T17:02:19;981.59;;;12.93;42.64
69593;BME280;56796;50.122;14.468;2023-04-27T17:21:42;981.6;;;12.43;43.73
69593;BME280;56796;50.122;14.468;2023-04-27T17:41:06;981.61;;;12.15;44.3
69593;BME280;56796;50.122;14.468;2023-04-27T18:00:31;981.69;;;11.63;45.97
69593;BME280;56796;50.122;14.468;2023-04-27T18:19:57;981.79;;;11.31;46.73
69593;BME280;56796;50.122;14.468;2023-04-27T18:39:22;982.16;;;10.67;49.12
69593;BME280;56796;50.122;14.468;2023-04-27T18:58:47;982.25;;;10.55;49.58
69593;BME280;56796;50.122;14.468;2023-04-27T19:18:16;982.31;;;10.44;50.13
69593;BME280;56796;50.122;14.468;2023-04-27T19:37:35;982.44;;;10.05;51.79
69593;BME280;56796;50.122;14.468;2023-04-27T19:57:03;982.5;;;9.66;53.91
69593;BME280;56796;50.122;14.468;2023-04-27T20:16:21;982.56;;;9.35;54.88
69593;BME280;56796;50.122;14.468;2023-04-27T20:35:47;982.55;;;9.12;56.06
69593;BME280;56796;50.122;14.468;2023-04-27T20:55:12;982.28;;;9.17;55.22
69593;BME280;56796;50.122;14.468;2023-04-27T21:14:39;982.16;;;9.13;55.03
69593;BME280;56796;50.122;14.468;2023-04-27T21:34:04;982.18;;;8.35;58.5
69593;BME280;56796;50.122;14.468;2023-04-27T21:53:30;982.16;;;8.07;59.76
69593;BME280;56796;50.122;14.468;2023-04-27T22:12:55;982.04;;;7.9;60.42
69593;BME280;56796;50.122;14.468;2023-04-27T22:32:19;982.05;;;7.7;61.17
69593;BME280;56796;50.122;14.468;2023-04-27T22:51:44;981.98;;;7.35;63.58
69593;BME280;56796;50.122;14.468;2023-04-27T23:11:09;981.88;;;6.94;65.22
69593;BME280;56796;50.122;14.468;2023-04-27T23:30:33;981.93;;;6.73;65.82
69593;BME280;56796;50.122;14.468;2023-04-27T23:49:58;981.9;;;6.69;66.54
